createdAt,value
2023-02-28T00:00:49.725Z,1.4
2023-02-28T00:07:09.627Z,1.4
2023-02-28T00:13:32.656Z,1.4
2023-02-28T00:19:52.544Z,1.4
2023-02-28T00:26:15.521Z,3.1
2023-02-28T00:32:35.651Z,3.1
2023-02-28T00:38:58.569Z,1.7
2023-02-28T00:45:18.567Z,1.7
2023-02-28T00:51:41.507Z,1.7
2023-02-28T00:58:01.756Z,1.7
2023-02-28T01:04:24.660Z,1.5
2023-02-28T01:10:44.610Z,1.5
2023-02-28T01:17:07.596Z,1.8
2023-02-28T01:23:27.571Z,1.8
2023-02-28T01:29:50.631Z,1.7
2023-02-28T01:36:10.625Z,1.7
2023-02-28T01:42:33.973Z,0.3
2023-02-28T01:48:53.595Z,0.3
2023-02-28T01:55:16.523Z,1.4
2023-02-28T02:01:36.734Z,1.4
2023-02-28T02:07:59.628Z,1.2
2023-02-28T02:14:19.616Z,1.2
2023-02-28T02:20:42.639Z,1.4
2023-02-28T02:27:02.555Z,1.4
2023-02-28T02:33:25.574Z,1.7
2023-02-28T02:39:45.637Z,1.7
2023-02-28T02:46:08.531Z,1.7
2023-02-28T02:52:28.603Z,1.7
2023-02-28T02:58:51.511Z,1.3
2023-02-28T03:05:11.589Z,1.3
2023-02-28T03:11:34.532Z,0.7
2023-02-28T03:17:54.663Z,0.7
2023-02-28T03:24:17.544Z,1.3
2023-02-28T03:30:37.587Z,1.3
2023-02-28T03:37:00.801Z,1.8
2023-02-28T03:43:20.650Z,1.8
2023-02-28T03:49:43.512Z,1.8
2023-02-28T03:56:03.593Z,1.8
2023-02-28T04:19:09.475Z,1.5
2023-02-28T04:25:32.555Z,1.4
2023-02-28T04:31:52.819Z,1.4
2023-02-28T04:38:15.652Z,1.4
2023-02-28T04:44:35.641Z,1.4
2023-02-28T04:50:58.508Z,1.4
2023-02-28T04:57:18.684Z,1.4
2023-02-28T05:03:41.656Z,2.6
2023-02-28T05:10:01.670Z,2.6
2023-02-28T05:16:24.645Z,1.8
2023-02-28T05:22:44.474Z,1.8
2023-02-28T05:29:07.520Z,1.3
2023-02-28T05:35:27.695Z,1.3
2023-02-28T05:41:50.559Z,1.1
2023-02-28T05:48:10.571Z,1.1
2023-02-28T05:54:33.518Z,1.6
2023-02-28T06:00:53.555Z,1.6
2023-02-28T06:07:16.514Z,2.5
2023-02-28T06:13:36.578Z,2.5
2023-02-28T06:19:59.714Z,0.5
2023-02-28T06:26:19.701Z,0.5
2023-02-28T06:32:42.582Z,1.1
2023-02-28T06:39:02.535Z,1.1
2023-02-28T06:45:25.603Z,2.1
2023-02-28T06:51:45.674Z,2.1
2023-02-28T06:58:08.520Z,4
2023-02-28T07:04:28.733Z,4
2023-02-28T07:10:51.594Z,2.8
2023-02-28T07:17:11.682Z,2.8
2023-02-28T07:23:34.523Z,3.6
2023-02-28T07:29:54.689Z,3.6
2023-02-28T07:36:17.571Z,2.9
2023-02-28T07:42:37.600Z,2.9
2023-02-28T07:49:00.653Z,3
2023-02-28T07:55:20.525Z,3
2023-02-28T08:01:43.696Z,1.4
2023-02-28T08:08:03.605Z,1.4
2023-02-28T08:14:26.512Z,2
2023-02-28T08:20:46.654Z,2
2023-02-28T08:27:09.567Z,1.5
2023-02-28T08:33:29.548Z,1.5
2023-02-28T08:39:55.716Z,2.2
2023-02-28T08:46:12.778Z,2.2
2023-02-28T08:52:35.630Z,0.8
2023-02-28T08:58:55.628Z,0.8
2023-02-28T09:05:18.594Z,0.9
2023-02-28T09:22:02.191Z,0.8
2023-02-28T09:28:25.356Z,2.3
2023-02-28T09:34:45.669Z,2.3
2023-02-28T09:41:08.766Z,2.3
2023-02-28T09:47:28.676Z,2.3
2023-02-28T09:53:56.596Z,1.4
2023-02-28T10:00:11.882Z,1.4
2023-02-28T10:06:34.665Z,1.6
2023-02-28T10:12:54.621Z,1.6
2023-02-28T10:19:17.649Z,1.4
2023-02-28T10:25:37.691Z,1.4
2023-02-28T10:32:00.628Z,0.8
2023-02-28T10:38:20.596Z,0.8
2023-02-28T10:44:43.510Z,0.8
2023-02-28T10:51:03.508Z,0.8
2023-02-28T10:57:26.579Z,1.5
2023-02-28T11:03:46.550Z,1.5
2023-02-28T11:10:09.622Z,1.3
2023-02-28T11:16:29.594Z,1.3
2023-02-28T11:22:52.615Z,2.2
2023-02-28T11:29:12.611Z,2.2
2023-02-28T11:35:35.755Z,0.1
2023-02-28T11:41:55.596Z,0.1
2023-02-28T11:48:18.529Z,1.2
2023-02-28T11:54:38.755Z,1.2
2023-02-28T12:01:01.530Z,1
2023-02-28T12:07:21.503Z,1
2023-02-28T12:13:44.689Z,1.6
2023-02-28T12:20:04.526Z,1.6
2023-02-28T12:26:27.616Z,0.5
2023-02-28T12:32:47.671Z,0.5
2023-02-28T12:39:10.543Z,3.2
2023-02-28T12:45:30.916Z,3.2
2023-02-28T12:51:53.708Z,2.9
2023-02-28T12:58:13.611Z,2.9
2023-02-28T13:04:36.537Z,1.3
2023-02-28T13:10:56.520Z,1.3
2023-02-28T13:17:19.578Z,1.3
2023-02-28T13:23:39.516Z,1.3
2023-02-28T13:30:02.622Z,1
2023-02-28T13:36:22.514Z,1
2023-02-28T13:42:45.537Z,1.8
2023-02-28T13:49:05.543Z,1.8
2023-02-28T13:55:28.575Z,0.9
2023-02-28T14:01:49.013Z,0.9
2023-02-28T14:08:11.560Z,1.2
2023-02-28T14:14:31.570Z,1.2
2023-02-28T14:32:06.128Z,3.8
2023-02-28T14:38:25.525Z,3.8
2023-02-28T14:44:48.498Z,3.3
2023-02-28T14:51:08.606Z,3.3
2023-02-28T14:57:31.536Z,1.3
2023-02-28T15:03:51.580Z,1.3
2023-02-28T15:10:14.587Z,1.8
2023-02-28T15:16:34.627Z,1.8
2023-02-28T15:22:57.572Z,1.6
2023-02-28T15:29:17.540Z,1.6
2023-02-28T15:35:40.626Z,2
2023-02-28T15:42:00.630Z,2
2023-02-28T15:48:23.615Z,2.3
2023-02-28T15:54:43.666Z,2.3
2023-02-28T16:01:06.564Z,1.8
2023-02-28T16:07:26.707Z,1.8
2023-02-28T16:13:49.561Z,1.9
2023-02-28T16:20:09.659Z,1.9
2023-02-28T16:26:32.542Z,2.1
2023-02-28T16:32:52.668Z,2.1
2023-02-28T16:39:15.643Z,1.9
2023-02-28T16:45:35.730Z,1.9
2023-02-28T16:51:58.702Z,1.6
2023-02-28T16:58:18.698Z,1.6
2023-02-28T17:04:41.810Z,1.1
2023-02-28T17:11:01.655Z,1.1
2023-02-28T17:17:24.527Z,1.8
2023-02-28T17:23:44.554Z,1.8
2023-02-28T17:30:07.490Z,0.7
2023-02-28T17:36:28.285Z,0.7
2023-02-28T17:42:50.742Z,2.6
2023-02-28T17:49:10.797Z,2.6
2023-02-28T17:55:33.524Z,1.8
2023-02-28T18:01:53.872Z,1.8
2023-02-28T18:08:16.688Z,1.4
2023-02-28T18:14:36.515Z,1.4
2023-02-28T18:20:59.932Z,1.4
2023-02-28T18:27:19.622Z,1.4
2023-02-28T18:33:42.573Z,3.3
2023-02-28T18:40:02.668Z,3.3
2023-02-28T18:46:25.826Z,1.4
2023-02-28T18:52:45.739Z,1.4
2023-02-28T18:59:08.635Z,2.5
2023-02-28T19:05:28.589Z,2.5
2023-02-28T19:11:51.985Z,2.6
2023-02-28T19:28:16.247Z,1.7
2023-02-28T19:34:39.017Z,2.4
2023-02-28T19:40:58.507Z,2.4
2023-02-28T19:47:21.745Z,3.1
2023-02-28T19:53:41.628Z,3.1
2023-02-28T20:00:04.716Z,3.2
2023-02-28T20:06:24.640Z,3.2
2023-02-28T20:12:47.642Z,1.4
2023-02-28T20:19:07.686Z,1.4
2023-02-28T20:25:30.616Z,2
2023-02-28T20:31:50.552Z,2
2023-02-28T20:38:13.552Z,4.2
2023-02-28T20:44:33.664Z,4.2
2023-02-28T20:50:56.519Z,2.7
2023-02-28T20:57:16.686Z,2.7
2023-02-28T21:03:39.548Z,3.7
2023-02-28T21:09:59.572Z,3.7
2023-02-28T21:16:22.514Z,3.7
2023-02-28T21:22:42.751Z,3.7
2023-02-28T21:29:05.640Z,3.5
2023-02-28T21:35:25.730Z,3.5
2023-02-28T21:41:48.534Z,6.3
2023-02-28T21:48:08.700Z,6.3
2023-02-28T21:54:31.622Z,5.5
2023-02-28T22:00:51.678Z,5.5
2023-02-28T22:07:14.623Z,3.7
2023-02-28T22:13:34.572Z,3.7
2023-02-28T22:19:57.566Z,4.1
2023-02-28T22:26:17.747Z,4.1
2023-02-28T22:32:40.529Z,2.6
2023-02-28T22:39:00.670Z,2.6
2023-02-28T22:45:23.620Z,4.1
2023-02-28T22:51:43.549Z,4.1
2023-02-28T22:58:06.610Z,2.7
2023-02-28T23:22:20.524Z,10.8
2023-02-28T23:28:40.580Z,10.8
2023-02-28T23:35:03.576Z,10.8
2023-02-28T23:41:24.301Z,10.8
2023-02-28T23:47:47.527Z,3.5
2023-02-28T23:54:07.568Z,3.5
